KSEG Airport (Penn Valley) Information

FAA: SEG - ICAO: KSEG

KSEG Airport Location

State Pennsylvania
County Snyder
City Selinsgrove
KSEG Airport is 1 miles north of Selinsgrove, PA.
Latitude 40-49-16.4450N
Longitude 076-51-51.0200W
Elevation 463ft

KSEG Airport METARs

METAR KSEG 181353Z AUTO VRB03KT 6SM -SN FEW042 BKN050 OVC060 M01/M05 A2993 RMK AO2 SNB28 SLP139 P0000 T10061050
Altimeter 29.93"
Temperature -0.6°C (30.9°F)
Wind 0° at 3KT
Clouds few at 4,200ft broken at 5,000ft overcast at 6,000ft
Visibility 6.0mi
Time observed: 2022-01-18T13:53:00Z

KSEG Airport Details

Status Operational
Activation May 1945
Ownership Public
Usage Public
Chart NEW YORK
ATC on-site No
Beacon schedule sunset-sunrise
Beacon color clear green

KSEG Airport Contacts

Owner PENN VALLEY AIRPORT AUTH
Owner address 100 AIRPORT RD, SELINSGROVE, PA 17870
Owner phone 570-374-7671
Manager JAMES WYLIE
Manager address 205 REIBOLD ROAD, REN FREW, PA 16053
Manager phone 412-789-7706

KSEG Airport (Penn Valley) Radio Frequencies

KSEG (Airport) Radio Frequencies

UNICOM 122.7
Common traffic advisory frequency (CTAF) 122.7